Estación Meteorológica Peña el Pijo (Robertgarden) [ 01/30/23 13:36:05 CET ]

Fecha Hora Presion(HPa) Temp (°C) Humedad % Rocio (°C) Viento ( m/s) Direccion Lluvia 1Hora(mm) Lluvia 24H(mm) LLuvia Total(mm)
2010-Jun-01 01:01:11 1015.500 14.9 67 8.8         114.99
2010-Jun-01 02:01:19 1015.200 14.2 71 9.0         114.99
2010-Jun-01 03:03:19 1014.400 13.5 73 8.7         114.99
2010-Jun-01 04:01:14 1014.200 13.9 71 8.8         114.99
2010-Jun-01 05:01:13 1014.100 13.4 72 8.4         114.99
2010-Jun-01 06:01:17 1013.700 12.3 75 8.0         114.99
2010-Jun-01 07:01:21 1013.700 11.6 78 7.9         114.99
2010-Jun-01 08:01:18 1013.800 13.6 77 9.6         114.99
2010-Jun-01 09:01:12 1013.700 18.1 68 12.1         114.99
2010-Jun-01 10:01:14 1013.600 25.7 49 14.2         114.99
2010-Jun-01 11:01:12 1013.200 30.1 33 12.0         114.99
2010-Jun-01 12:01:17 1013.200 31.3 27 9.9         114.99
2010-Jun-01 13:01:13 1013.000 33.1 25 10.2         114.99
2010-Jun-01 14:01:17 1012.600 34.1 23 9.8         114.99
2010-Jun-01 15:01:16 1012.000 33.4 22 8.6 0.6 WSW     114.99
2010-Jun-01 16:01:17 1011.900 31.8 25 9.1         114.99
2010-Jun-01 17:01:14 1011.500 35.1 21 9.4         114.99
2010-Jun-01 18:01:12 1011.300 33.3 22 8.6         114.99
2010-Jun-01 19:01:12 1011.100 32.4 22 7.8         114.99
2010-Jun-01 20:01:14 1011.200 29.6 25 7.3         114.99
2010-Jun-01 21:01:13 1011.300 24.9 42 11.1         114.99
2010-Jun-01 22:01:12 1011.600 21.3 55 11.9         114.99
2010-Jun-01 23:01:13 1012.300 19.9 55 10.6         114.99

Temperatura Máxima:35°    Temperatura Mínima:11°
Presión Máxima:1015.500 Hpa    Presión Mínima:1011.100 Hpa


Volver